sensor_id;sensor_type;location;lat;lon;timestamp;P1;durP1;ratioP1;P2;durP2;ratioP2
14748;SDS011;7466;53.574;9.976;2024-02-14T00:02:04;4.07;;;3.10;;
14748;SDS011;7466;53.574;9.976;2024-02-14T00:04:33;7.07;;;3.10;;
14748;SDS011;7466;53.574;9.976;2024-02-14T00:07:00;3.90;;;3.00;;
14748;SDS011;7466;53.574;9.976;2024-02-14T00:09:27;8.30;;;2.97;;
14748;SDS011;7466;53.574;9.976;2024-02-14T00:11:54;8.47;;;3.37;;
14748;SDS011;7466;53.574;9.976;2024-02-14T00:14:21;2.77;;;2.57;;
14748;SDS011;7466;53.574;9.976;2024-02-14T00:16:48;6.73;;;2.70;;
14748;SDS011;7466;53.574;9.976;2024-02-14T00:19:16;4.33;;;2.63;;
14748;SDS011;7466;53.574;9.976;2024-02-14T00:21:44;6.37;;;2.67;;
14748;SDS011;7466;53.574;9.976;2024-02-14T00:24:10;3.60;;;2.80;;
14748;SDS011;7466;53.574;9.976;2024-02-14T00:26:38;2.87;;;2.53;;
14748;SDS011;7466;53.574;9.976;2024-02-14T00:29:05;4.43;;;2.70;;
14748;SDS011;7466;53.574;9.976;2024-02-14T00:31:33;3.37;;;2.93;;
14748;SDS011;7466;53.574;9.976;2024-02-14T00:34:01;5.23;;;2.93;;
14748;SDS011;7466;53.574;9.976;2024-02-14T00:36:28;3.03;;;2.77;;
14748;SDS011;7466;53.574;9.976;2024-02-14T00:38:56;4.50;;;2.70;;
14748;SDS011;7466;53.574;9.976;2024-02-14T00:41:23;6.03;;;2.83;;
14748;SDS011;7466;53.574;9.976;2024-02-14T00:43:54;4.60;;;2.50;;
14748;SDS011;7466;53.574;9.976;2024-02-14T00:46:21;5.23;;;3.23;;
14748;SDS011;7466;53.574;9.976;2024-02-14T00:48:48;5.63;;;2.67;;
14748;SDS011;7466;53.574;9.976;2024-02-14T00:51:15;6.53;;;2.97;;
14748;SDS011;7466;53.574;9.976;2024-02-14T00:53:42;2.93;;;2.63;;
14748;SDS011;7466;53.574;9.976;2024-02-14T00:56:11;6.20;;;2.90;;
14748;SDS011;7466;53.574;9.976;2024-02-14T00:58:37;6.53;;;2.63;;
14748;SDS011;7466;53.574;9.976;2024-02-14T01:01:06;4.67;;;2.70;;
14748;SDS011;7466;53.574;9.976;2024-02-14T01:03:33;7.87;;;2.90;;
14748;SDS011;7466;53.574;9.976;2024-02-14T01:06:00;3.17;;;2.67;;
14748;SDS011;7466;53.574;9.976;2024-02-14T01:08:27;4.43;;;2.57;;
14748;SDS011;7466;53.574;9.976;2024-02-14T01:10:55;4.60;;;2.70;;
14748;SDS011;7466;53.574;9.976;2024-02-14T01:13:24;2.73;;;2.50;;
14748;SDS011;7466;53.574;9.976;2024-02-14T01:15:50;4.23;;;2.63;;
14748;SDS011;7466;53.574;9.976;2024-02-14T01:18:18;5.30;;;2.47;;
14748;SDS011;7466;53.574;9.976;2024-02-14T01:20:44;3.00;;;2.70;;
14748;SDS011;7466;53.574;9.976;2024-02-14T01:23:11;2.90;;;2.40;;
14748;SDS011;7466;53.574;9.976;2024-02-14T01:25:38;3.83;;;2.53;;
14748;SDS011;7466;53.574;9.976;2024-02-14T01:28:07;5.47;;;2.70;;
14748;SDS011;7466;53.574;9.976;2024-02-14T01:30:36;3.40;;;2.43;;
14748;SDS011;7466;53.574;9.976;2024-02-14T01:33:03;3.40;;;2.50;;
14748;SDS011;7466;53.574;9.976;2024-02-14T01:35:30;5.47;;;2.80;;
14748;SDS011;7466;53.574;9.976;2024-02-14T01:37:57;4.23;;;2.70;;
14748;SDS011;7466;53.574;9.976;2024-02-14T01:40:23;3.63;;;2.90;;
14748;SDS011;7466;53.574;9.976;2024-02-14T01:42:50;3.30;;;3.00;;
14748;SDS011;7466;53.574;9.976;2024-02-14T01:45:17;4.43;;;2.90;;
14748;SDS011;7466;53.574;9.976;2024-02-14T01:47:46;3.60;;;3.30;;
14748;SDS011;7466;53.574;9.976;2024-02-14T01:50:15;5.00;;;3.00;;
14748;SDS011;7466;53.574;9.976;2024-02-14T01:52:46;4.77;;;3.30;;
14748;SDS011;7466;53.574;9.976;2024-02-14T01:55:24;3.03;;;2.80;;
14748;SDS011;7466;53.574;9.976;2024-02-14T01:57:52;3.43;;;3.13;;
14748;SDS011;7466;53.574;9.976;2024-02-14T02:00:22;5.87;;;3.10;;
14748;SDS011;7466;53.574;9.976;2024-02-14T02:02:51;4.83;;;3.20;;
14748;SDS011;7466;53.574;9.976;2024-02-14T02:05:19;3.47;;;3.17;;
14748;SDS011;7466;53.574;9.976;2024-02-14T02:07:46;6.60;;;3.30;;
14748;SDS011;7466;53.574;9.976;2024-02-14T02:10:13;5.33;;;3.10;;
14748;SDS011;7466;53.574;9.976;2024-02-14T02:12:42;5.33;;;3.50;;
14748;SDS011;7466;53.574;9.976;2024-02-14T02:15:09;5.20;;;3.40;;
14748;SDS011;7466;53.574;9.976;2024-02-14T02:17:39;3.83;;;3.43;;
14748;SDS011;7466;53.574;9.976;2024-02-14T02:20:11;5.77;;;3.50;;
14748;SDS011;7466;53.574;9.976;2024-02-14T02:22:50;6.83;;;3.40;;
14748;SDS011;7466;53.574;9.976;2024-02-14T02:25:20;4.03;;;3.50;;
14748;SDS011;7466;53.574;9.976;2024-02-14T02:27:51;7.77;;;3.73;;
14748;SDS011;7466;53.574;9.976;2024-02-14T02:30:18;3.90;;;3.60;;
14748;SDS011;7466;53.574;9.976;2024-02-14T02:32:45;7.40;;;3.60;;
14748;SDS011;7466;53.574;9.976;2024-02-14T02:35:13;4.70;;;4.17;;
14748;SDS011;7466;53.574;9.976;2024-02-14T02:37:43;4.57;;;3.60;;
14748;SDS011;7466;53.574;9.976;2024-02-14T02:40:12;3.67;;;3.27;;
14748;SDS011;7466;53.574;9.976;2024-02-14T02:42:39;4.73;;;3.70;;
14748;SDS011;7466;53.574;9.976;2024-02-14T02:45:11;4.53;;;3.60;;
14748;SDS011;7466;53.574;9.976;2024-02-14T02:47:41;5.53;;;3.80;;
14748;SDS011;7466;53.574;9.976;2024-02-14T02:50:09;4.43;;;3.60;;
14748;SDS011;7466;53.574;9.976;2024-02-14T02:52:36;5.00;;;4.07;;
14748;SDS011;7466;53.574;9.976;2024-02-14T02:55:04;6.93;;;3.80;;
14748;SDS011;7466;53.574;9.976;2024-02-14T02:57:33;5.07;;;3.83;;
14748;SDS011;7466;53.574;9.976;2024-02-14T03:00:02;4.27;;;3.70;;
14748;SDS011;7466;53.574;9.976;2024-02-14T03:02:34;7.47;;;3.97;;
14748;SDS011;7466;53.574;9.976;2024-02-14T03:05:04;5.10;;;3.67;;
14748;SDS011;7466;53.574;9.976;2024-02-14T03:07:35;5.73;;;4.03;;
14748;SDS011;7466;53.574;9.976;2024-02-14T03:10:09;5.80;;;4.13;;
14748;SDS011;7466;53.574;9.976;2024-02-14T03:12:38;4.77;;;4.30;;
14748;SDS011;7466;53.574;9.976;2024-02-14T03:15:15;5.30;;;4.17;;
14748;SDS011;7466;53.574;9.976;2024-02-14T03:17:43;8.03;;;4.30;;
14748;SDS011;7466;53.574;9.976;2024-02-14T03:20:10;7.47;;;4.00;;
14748;SDS011;7466;53.574;9.976;2024-02-14T03:22:39;4.70;;;4.30;;
14748;SDS011;7466;53.574;9.976;2024-02-14T03:25:17;4.40;;;4.00;;
14748;SDS011;7466;53.574;9.976;2024-02-14T03:27:50;4.47;;;4.07;;
14748;SDS011;7466;53.574;9.976;2024-02-14T03:30:29;8.00;;;4.33;;
14748;SDS011;7466;53.574;9.976;2024-02-14T03:32:57;4.47;;;4.00;;
14748;SDS011;7466;53.574;9.976;2024-02-14T03:35:29;5.37;;;4.73;;
14748;SDS011;7466;53.574;9.976;2024-02-14T03:38:01;4.70;;;4.30;;
14748;SDS011;7466;53.574;9.976;2024-02-14T03:40:29;6.10;;;5.20;;
14748;SDS011;7466;53.574;9.976;2024-02-14T03:42:58;5.50;;;4.90;;
14748;SDS011;7466;53.574;9.976;2024-02-14T03:45:24;5.73;;;4.50;;
14748;SDS011;7466;53.574;9.976;2024-02-14T03:47:54;5.53;;;4.37;;
14748;SDS011;7466;53.574;9.976;2024-02-14T03:50:23;5.73;;;4.83;;
14748;SDS011;7466;53.574;9.976;2024-02-14T03:52:50;5.83;;;4.50;;
14748;SDS011;7466;53.574;9.976;2024-02-14T03:55:18;7.17;;;4.63;;
14748;SDS011;7466;53.574;9.976;2024-02-14T03:57:48;8.13;;;5.30;;
14748;SDS011;7466;53.574;9.976;2024-02-14T04:00:18;5.17;;;4.63;;
14748;SDS011;7466;53.574;9.976;2024-02-14T04:02:47;5.33;;;4.83;;
14748;SDS011;7466;53.574;9.976;2024-02-14T04:05:34;8.27;;;5.67;;
14748;SDS011;7466;53.574;9.976;2024-02-14T04:08:07;6.27;;;5.17;;
14748;SDS011;7466;53.574;9.976;2024-02-14T04:10:37;7.83;;;5.47;;
14748;SDS011;7466;53.574;9.976;2024-02-14T04:13:12;7.60;;;5.47;;
14748;SDS011;7466;53.574;9.976;2024-02-14T04:15:42;11.00;;;5.67;;
14748;SDS011;7466;53.574;9.976;2024-02-14T04:18:14;7.00;;;5.80;;
14748;SDS011;7466;53.574;9.976;2024-02-14T04:20:53;7.00;;;6.03;;
14748;SDS011;7466;53.574;9.976;2024-02-14T04:23:24;6.67;;;5.67;;
14748;SDS011;7466;53.574;9.976;2024-02-14T04:25:54;6.93;;;5.90;;
14748;SDS011;7466;53.574;9.976;2024-02-14T04:28:22;7.33;;;6.00;;
14748;SDS011;7466;53.574;9.976;2024-02-14T04:30:54;6.53;;;5.50;;
14748;SDS011;7466;53.574;9.976;2024-02-14T04:33:22;7.37;;;5.97;;
14748;SDS011;7466;53.574;9.976;2024-02-14T04:35:50;6.60;;;5.83;;
14748;SDS011;7466;53.574;9.976;2024-02-14T04:38:27;8.00;;;5.80;;
14748;SDS011;7466;53.574;9.976;2024-02-14T04:40:57;8.90;;;5.80;;
14748;SDS011;7466;53.574;9.976;2024-02-14T04:43:50;7.87;;;6.27;;
14748;SDS011;7466;53.574;9.976;2024-02-14T04:46:19;7.50;;;6.67;;
14748;SDS011;7466;53.574;9.976;2024-02-14T04:48:58;8.53;;;6.33;;
14748;SDS011;7466;53.574;9.976;2024-02-14T04:51:47;8.27;;;6.67;;
14748;SDS011;7466;53.574;9.976;2024-02-14T04:54:18;7.77;;;6.70;;
14748;SDS011;7466;53.574;9.976;2024-02-14T04:56:45;10.93;;;6.83;;
14748;SDS011;7466;53.574;9.976;2024-02-14T04:59:42;9.60;;;7.00;;
14748;SDS011;7466;53.574;9.976;2024-02-14T05:02:11;8.50;;;7.67;;
14748;SDS011;7466;53.574;9.976;2024-02-14T05:04:40;12.97;;;8.47;;
14748;SDS011;7466;53.574;9.976;2024-02-14T05:09:55;9.50;;;7.77;;
14748;SDS011;7466;53.574;9.976;2024-02-14T05:12:22;8.87;;;8.03;;
14748;SDS011;7466;53.574;9.976;2024-02-14T05:14:58;9.50;;;8.03;;
14748;SDS011;7466;53.574;9.976;2024-02-14T05:17:41;9.13;;;7.57;;
14748;SDS011;7466;53.574;9.976;2024-02-14T05:20:09;10.50;;;7.90;;
14748;SDS011;7466;53.574;9.976;2024-02-14T05:22:37;12.23;;;8.27;;
14748;SDS011;7466;53.574;9.976;2024-02-14T05:25:05;10.93;;;7.87;;
14748;SDS011;7466;53.574;9.976;2024-02-14T05:27:44;11.17;;;7.83;;
14748;SDS011;7466;53.574;9.976;2024-02-14T05:30:14;9.20;;;7.80;;
14748;SDS011;7466;53.574;9.976;2024-02-14T05:32:43;9.17;;;8.23;;
14748;SDS011;7466;53.574;9.976;2024-02-14T05:35:10;9.23;;;8.30;;
14748;SDS011;7466;53.574;9.976;2024-02-14T05:37:36;9.90;;;8.90;;
14748;SDS011;7466;53.574;9.976;2024-02-14T05:40:04;10.07;;;8.10;;
14748;SDS011;7466;53.574;9.976;2024-02-14T05:42:32;10.13;;;8.37;;
14748;SDS011;7466;53.574;9.976;2024-02-14T05:45:00;8.03;;;7.17;;
14748;SDS011;7466;53.574;9.976;2024-02-14T05:47:30;9.17;;;8.10;;
14748;SDS011;7466;53.574;9.976;2024-02-14T05:49:58;8.10;;;7.40;;
14748;SDS011;7466;53.574;9.976;2024-02-14T05:52:25;8.70;;;8.00;;
14748;SDS011;7466;53.574;9.976;2024-02-14T05:54:52;8.77;;;7.87;;
14748;SDS011;7466;53.574;9.976;2024-02-14T05:57:19;8.17;;;7.47;;
14748;SDS011;7466;53.574;9.976;2024-02-14T05:59:46;8.80;;;7.90;;
14748;SDS011;7466;53.574;9.976;2024-02-14T06:02:13;8.50;;;7.63;;
14748;SDS011;7466;53.574;9.976;2024-02-14T06:04:39;8.87;;;8.00;;
14748;SDS011;7466;53.574;9.976;2024-02-14T06:07:08;8.40;;;7.63;;
14748;SDS011;7466;53.574;9.976;2024-02-14T06:09:36;8.50;;;7.80;;
14748;SDS011;7466;53.574;9.976;2024-02-14T06:12:03;9.73;;;7.90;;
14748;SDS011;7466;53.574;9.976;2024-02-14T06:14:30;8.60;;;7.80;;
14748;SDS011;7466;53.574;9.976;2024-02-14T06:17:00;9.67;;;8.77;;
14748;SDS011;7466;53.574;9.976;2024-02-14T06:19:27;9.10;;;8.30;;
14748;SDS011;7466;53.574;9.976;2024-02-14T06:21:55;8.53;;;7.70;;
14748;SDS011;7466;53.574;9.976;2024-02-14T06:24:24;9.83;;;9.03;;
14748;SDS011;7466;53.574;9.976;2024-02-14T06:26:50;8.43;;;7.67;;
14748;SDS011;7466;53.574;9.976;2024-02-14T06:29:17;11.20;;;8.80;;
14748;SDS011;7466;53.574;9.976;2024-02-14T06:31:46;8.97;;;8.17;;
14748;SDS011;7466;53.574;9.976;2024-02-14T06:34:13;9.43;;;8.70;;
14748;SDS011;7466;53.574;9.976;2024-02-14T06:36:40;9.67;;;8.77;;
14748;SDS011;7466;53.574;9.976;2024-02-14T06:39:07;8.87;;;8.17;;
14748;SDS011;7466;53.574;9.976;2024-02-14T06:41:35;10.60;;;8.50;;
14748;SDS011;7466;53.574;9.976;2024-02-14T06:44:08;9.77;;;8.87;;
14748;SDS011;7466;53.574;9.976;2024-02-14T06:47:06;9.20;;;8.33;;
14748;SDS011;7466;53.574;9.976;2024-02-14T06:49:35;9.77;;;8.70;;
14748;SDS011;7466;53.574;9.976;2024-02-14T06:52:03;11.47;;;9.27;;
14748;SDS011;7466;53.574;9.976;2024-02-14T06:54:30;9.73;;;8.93;;
14748;SDS011;7466;53.574;9.976;2024-02-14T06:56:58;10.60;;;9.23;;
14748;SDS011;7466;53.574;9.976;2024-02-14T06:59:25;10.63;;;9.70;;
14748;SDS011;7466;53.574;9.976;2024-02-14T07:01:52;9.80;;;8.87;;
14748;SDS011;7466;53.574;9.976;2024-02-14T07:04:20;9.97;;;9.13;;
14748;SDS011;7466;53.574;9.976;2024-02-14T07:06:51;10.30;;;9.20;;
14748;SDS011;7466;53.574;9.976;2024-02-14T07:09:18;9.50;;;8.67;;
14748;SDS011;7466;53.574;9.976;2024-02-14T07:11:45;11.73;;;9.40;;
14748;SDS011;7466;53.574;9.976;2024-02-14T07:14:13;10.17;;;9.27;;
14748;SDS011;7466;53.574;9.976;2024-02-14T07:16:40;10.53;;;9.63;;
14748;SDS011;7466;53.574;9.976;2024-02-14T07:19:07;11.43;;;9.50;;
14748;SDS011;7466;53.574;9.976;2024-02-14T07:21:34;11.20;;;10.10;;
14748;SDS011;7466;53.574;9.976;2024-02-14T07:24:03;12.03;;;9.50;;
14748;SDS011;7466;53.574;9.976;2024-02-14T07:26:30;10.03;;;9.13;;
14748;SDS011;7466;53.574;9.976;2024-02-14T07:28:57;10.13;;;9.23;;
14748;SDS011;7466;53.574;9.976;2024-02-14T07:31:35;10.10;;;9.30;;
14748;SDS011;7466;53.574;9.976;2024-02-14T07:34:01;10.37;;;9.53;;
14748;SDS011;7466;53.574;9.976;2024-02-14T07:36:29;10.50;;;9.23;;
14748;SDS011;7466;53.574;9.976;2024-02-14T07:38:55;11.40;;;9.10;;
14748;SDS011;7466;53.574;9.976;2024-02-14T07:41:22;10.80;;;9.97;;
14748;SDS011;7466;53.574;9.976;2024-02-14T07:43:49;11.00;;;9.90;;
14748;SDS011;7466;53.574;9.976;2024-02-14T07:46:16;9.53;;;8.50;;
14748;SDS011;7466;53.574;9.976;2024-02-14T07:48:45;10.23;;;9.23;;
14748;SDS011;7466;53.574;9.976;2024-02-14T07:51:13;10.30;;;9.30;;
14748;SDS011;7466;53.574;9.976;2024-02-14T07:53:40;10.47;;;9.37;;
14748;SDS011;7466;53.574;9.976;2024-02-14T07:56:07;10.27;;;9.33;;
14748;SDS011;7466;53.574;9.976;2024-02-14T07:58:34;10.10;;;9.20;;
14748;SDS011;7466;53.574;9.976;2024-02-14T08:01:01;10.47;;;9.40;;
14748;SDS011;7466;53.574;9.976;2024-02-14T08:03:29;11.10;;;9.97;;
14748;SDS011;7466;53.574;9.976;2024-02-14T08:05:58;10.30;;;9.30;;
14748;SDS011;7466;53.574;9.976;2024-02-14T08:08:25;10.23;;;9.23;;
14748;SDS011;7466;53.574;9.976;2024-02-14T08:10:53;10.07;;;9.13;;
14748;SDS011;7466;53.574;9.976;2024-02-14T08:13:20;10.33;;;9.30;;
14748;SDS011;7466;53.574;9.976;2024-02-14T08:15:49;9.23;;;8.40;;
14748;SDS011;7466;53.574;9.976;2024-02-14T08:18:15;10.00;;;9.10;;
14748;SDS011;7466;53.574;9.976;2024-02-14T08:20:42;10.07;;;8.73;;
14748;SDS011;7466;53.574;9.976;2024-02-14T08:23:10;10.47;;;9.13;;
14748;SDS011;7466;53.574;9.976;2024-02-14T08:25:37;9.83;;;8.63;;
14748;SDS011;7466;53.574;9.976;2024-02-14T08:28:06;9.37;;;8.47;;
14748;SDS011;7466;53.574;9.976;2024-02-14T08:30:33;10.57;;;8.20;;
14748;SDS011;7466;53.574;9.976;2024-02-14T08:33:00;8.67;;;7.87;;
14748;SDS011;7466;53.574;9.976;2024-02-14T08:35:27;8.83;;;8.13;;
14748;SDS011;7466;53.574;9.976;2024-02-14T08:37:53;9.60;;;8.60;;
14748;SDS011;7466;53.574;9.976;2024-02-14T08:40:23;8.77;;;7.93;;
14748;SDS011;7466;53.574;9.976;2024-02-14T08:42:50;9.60;;;8.53;;
14748;SDS011;7466;53.574;9.976;2024-02-14T08:45:17;9.57;;;8.70;;
14748;SDS011;7466;53.574;9.976;2024-02-14T08:47:44;8.97;;;8.27;;
14748;SDS011;7466;53.574;9.976;2024-02-14T08:50:12;9.93;;;9.00;;
14748;SDS011;7466;53.574;9.976;2024-02-14T08:52:39;9.10;;;8.40;;
14748;SDS011;7466;53.574;9.976;2024-02-14T08:55:06;9.37;;;8.30;;
14748;SDS011;7466;53.574;9.976;2024-02-14T08:57:40;8.40;;;7.80;;
14748;SDS011;7466;53.574;9.976;2024-02-14T09:00:08;9.50;;;8.60;;
14748;SDS011;7466;53.574;9.976;2024-02-14T09:02:35;8.70;;;7.90;;
14748;SDS011;7466;53.574;9.976;2024-02-14T09:05:02;9.47;;;8.73;;
14748;SDS011;7466;53.574;9.976;2024-02-14T09:07:31;8.87;;;8.17;;
14748;SDS011;7466;53.574;9.976;2024-02-14T09:09:58;8.87;;;8.17;;
14748;SDS011;7466;53.574;9.976;2024-02-14T09:12:25;8.70;;;8.00;;
14748;SDS011;7466;53.574;9.976;2024-02-14T09:14:53;9.07;;;8.30;;
14748;SDS011;7466;53.574;9.976;2024-02-14T09:17:22;8.23;;;7.53;;
14748;SDS011;7466;53.574;9.976;2024-02-14T09:19:48;10.07;;;8.27;;
14748;SDS011;7466;53.574;9.976;2024-02-14T09:22:16;9.40;;;8.60;;
14748;SDS011;7466;53.574;9.976;2024-02-14T09:24:46;9.33;;;8.33;;
14748;SDS011;7466;53.574;9.976;2024-02-14T09:27:13;8.73;;;7.93;;
14748;SDS011;7466;53.574;9.976;2024-02-14T09:29:41;8.00;;;7.40;;
14748;SDS011;7466;53.574;9.976;2024-02-14T09:32:09;9.03;;;8.00;;
14748;SDS011;7466;53.574;9.976;2024-02-14T09:34:36;8.73;;;8.03;;
14748;SDS011;7466;53.574;9.976;2024-02-14T09:37:03;8.47;;;7.67;;
14748;SDS011;7466;53.574;9.976;2024-02-14T09:39:31;10.00;;;7.93;;
14748;SDS011;7466;53.574;9.976;2024-02-14T09:42:03;9.03;;;7.43;;
14748;SDS011;7466;53.574;9.976;2024-02-14T09:44:35;8.33;;;7.63;;
14748;SDS011;7466;53.574;9.976;2024-02-14T09:47:03;8.80;;;7.90;;
14748;SDS011;7466;53.574;9.976;2024-02-14T09:49:33;7.87;;;7.27;;
14748;SDS011;7466;53.574;9.976;2024-02-14T09:52:01;7.77;;;6.83;;
14748;SDS011;7466;53.574;9.976;2024-02-14T09:54:29;8.77;;;7.97;;
14748;SDS011;7466;53.574;9.976;2024-02-14T09:56:57;9.20;;;8.50;;
14748;SDS011;7466;53.574;9.976;2024-02-14T09:59:25;8.23;;;7.40;;
14748;SDS011;7466;53.574;9.976;2024-02-14T10:01:52;8.20;;;7.40;;
14748;SDS011;7466;53.574;9.976;2024-02-14T10:04:19;8.93;;;8.23;;
14748;SDS011;7466;53.574;9.976;2024-02-14T10:06:48;7.73;;;7.13;;
14748;SDS011;7466;53.574;9.976;2024-02-14T10:09:18;7.67;;;7.07;;
14748;SDS011;7466;53.574;9.976;2024-02-14T10:11:48;6.53;;;6.00;;
14748;SDS011;7466;53.574;9.976;2024-02-14T10:14:15;6.60;;;6.20;;
14748;SDS011;7466;53.574;9.976;2024-02-14T10:16:42;6.43;;;5.93;;
14748;SDS011;7466;53.574;9.976;2024-02-14T10:19:19;6.97;;;6.37;;
14748;SDS011;7466;53.574;9.976;2024-02-14T10:21:56;6.33;;;5.83;;
14748;SDS011;7466;53.574;9.976;2024-02-14T10:24:24;6.80;;;6.30;;
14748;SDS011;7466;53.574;9.976;2024-02-14T10:26:51;7.40;;;6.80;;
14748;SDS011;7466;53.574;9.976;2024-02-14T10:29:18;7.53;;;6.83;;
14748;SDS011;7466;53.574;9.976;2024-02-14T10:31:46;7.37;;;6.77;;
14748;SDS011;7466;53.574;9.976;2024-02-14T10:34:13;6.30;;;5.90;;
14748;SDS011;7466;53.574;9.976;2024-02-14T10:36:40;7.03;;;6.60;;
14748;SDS011;7466;53.574;9.976;2024-02-14T10:39:11;7.43;;;6.83;;
14748;SDS011;7466;53.574;9.976;2024-02-14T10:41:40;7.80;;;7.30;;
14748;SDS011;7466;53.574;9.976;2024-02-14T10:44:07;9.20;;;8.43;;
14748;SDS011;7466;53.574;9.976;2024-02-14T10:46:37;8.03;;;7.43;;
14748;SDS011;7466;53.574;9.976;2024-02-14T10:49:07;8.07;;;7.43;;
14748;SDS011;7466;53.574;9.976;2024-02-14T10:51:36;7.00;;;6.40;;
14748;SDS011;7466;53.574;9.976;2024-02-14T10:54:08;8.40;;;7.80;;
14748;SDS011;7466;53.574;9.976;2024-02-14T10:56:38;8.93;;;8.03;;
14748;SDS011;7466;53.574;9.976;2024-02-14T10:59:07;8.00;;;7.10;;
14748;SDS011;7466;53.574;9.976;2024-02-14T11:01:38;7.40;;;6.83;;
14748;SDS011;7466;53.574;9.976;2024-02-14T11:04:06;6.40;;;5.97;;
14748;SDS011;7466;53.574;9.976;2024-02-14T11:06:43;6.70;;;6.20;;
14748;SDS011;7466;53.574;9.976;2024-02-14T11:09:11;7.10;;;6.60;;
14748;SDS011;7466;53.574;9.976;2024-02-14T11:11:41;6.70;;;6.30;;
14748;SDS011;7466;53.574;9.976;2024-02-14T11:14:09;7.13;;;6.63;;
14748;SDS011;7466;53.574;9.976;2024-02-14T11:16:37;6.93;;;6.53;;
14748;SDS011;7466;53.574;9.976;2024-02-14T11:19:07;6.80;;;6.40;;
14748;SDS011;7466;53.574;9.976;2024-02-14T11:21:39;7.87;;;7.37;;
14748;SDS011;7466;53.574;9.976;2024-02-14T11:24:09;8.20;;;7.70;;
14748;SDS011;7466;53.574;9.976;2024-02-14T11:26:39;8.27;;;7.67;;
14748;SDS011;7466;53.574;9.976;2024-02-14T11:29:13;7.90;;;7.30;;
14748;SDS011;7466;53.574;9.976;2024-02-14T11:31:41;7.90;;;7.40;;
14748;SDS011;7466;53.574;9.976;2024-02-14T11:34:08;8.20;;;7.60;;
14748;SDS011;7466;53.574;9.976;2024-02-14T11:36:37;7.90;;;7.40;;
14748;SDS011;7466;53.574;9.976;2024-02-14T11:39:05;8.77;;;8.17;;
14748;SDS011;7466;53.574;9.976;2024-02-14T11:41:32;8.37;;;7.73;;
14748;SDS011;7466;53.574;9.976;2024-02-14T11:44:02;7.93;;;7.30;;
14748;SDS011;7466;53.574;9.976;2024-02-14T11:46:29;8.57;;;7.93;;
14748;SDS011;7466;53.574;9.976;2024-02-14T11:48:57;8.43;;;7.73;;
14748;SDS011;7466;53.574;9.976;2024-02-14T11:51:26;8.47;;;7.93;;
14748;SDS011;7466;53.574;9.976;2024-02-14T11:53:53;8.77;;;7.97;;
14748;SDS011;7466;53.574;9.976;2024-02-14T11:56:29;8.43;;;7.83;;
14748;SDS011;7466;53.574;9.976;2024-02-14T11:58:59;8.83;;;8.23;;
14748;SDS011;7466;53.574;9.976;2024-02-14T12:01:28;8.93;;;8.20;;
14748;SDS011;7466;53.574;9.976;2024-02-14T12:03:56;9.37;;;8.67;;
14748;SDS011;7466;53.574;9.976;2024-02-14T12:06:23;9.43;;;8.63;;
14748;SDS011;7466;53.574;9.976;2024-02-14T12:08:50;9.17;;;8.47;;
14748;SDS011;7466;53.574;9.976;2024-02-14T12:11:17;9.53;;;8.77;;
14748;SDS011;7466;53.574;9.976;2024-02-14T12:13:49;8.73;;;8.03;;
14748;SDS011;7466;53.574;9.976;2024-02-14T12:16:16;9.50;;;8.80;;
14748;SDS011;7466;53.574;9.976;2024-02-14T12:18:47;8.93;;;8.13;;
14748;SDS011;7466;53.574;9.976;2024-02-14T12:21:13;10.03;;;9.30;;
14748;SDS011;7466;53.574;9.976;2024-02-14T12:23:40;9.60;;;8.60;;
14748;SDS011;7466;53.574;9.976;2024-02-14T12:26:07;9.97;;;9.07;;
14748;SDS011;7466;53.574;9.976;2024-02-14T12:28:40;9.60;;;8.80;;
14748;SDS011;7466;53.574;9.976;2024-02-14T12:31:07;10.53;;;9.63;;
14748;SDS011;7466;53.574;9.976;2024-02-14T12:33:34;10.43;;;9.43;;
14748;SDS011;7466;53.574;9.976;2024-02-14T12:36:02;9.93;;;9.10;;
14748;SDS011;7466;53.574;9.976;2024-02-14T12:38:32;11.03;;;10.03;;
14748;SDS011;7466;53.574;9.976;2024-02-14T12:41:00;10.70;;;9.73;;
14748;SDS011;7466;53.574;9.976;2024-02-14T12:43:27;10.93;;;9.93;;
14748;SDS011;7466;53.574;9.976;2024-02-14T12:45:54;11.20;;;10.10;;
14748;SDS011;7466;53.574;9.976;2024-02-14T12:48:22;11.30;;;10.20;;
14748;SDS011;7466;53.574;9.976;2024-02-14T12:50:51;12.47;;;11.27;;
14748;SDS011;7466;53.574;9.976;2024-02-14T12:53:20;12.20;;;10.90;;
14748;SDS011;7466;53.574;9.976;2024-02-14T12:55:47;12.40;;;11.17;;
14748;SDS011;7466;53.574;9.976;2024-02-14T12:58:13;12.57;;;11.47;;
14748;SDS011;7466;53.574;9.976;2024-02-14T13:00:41;13.07;;;11.73;;
14748;SDS011;7466;53.574;9.976;2024-02-14T13:03:09;14.30;;;12.90;;
14748;SDS011;7466;53.574;9.976;2024-02-14T13:05:36;16.57;;;14.03;;
14748;SDS011;7466;53.574;9.976;2024-02-14T13:08:04;14.47;;;13.10;;
14748;SDS011;7466;53.574;9.976;2024-02-14T13:10:33;16.73;;;14.17;;
14748;SDS011;7466;53.574;9.976;2024-02-14T13:13:01;17.13;;;14.43;;
14748;SDS011;7466;53.574;9.976;2024-02-14T13:15:29;16.80;;;14.17;;
14748;SDS011;7466;53.574;9.976;2024-02-14T13:17:56;18.40;;;14.30;;
14748;SDS011;7466;53.574;9.976;2024-02-14T13:20:24;16.77;;;13.87;;
14748;SDS011;7466;53.574;9.976;2024-02-14T13:22:50;16.33;;;14.17;;
14748;SDS011;7466;53.574;9.976;2024-02-14T13:25:17;15.07;;;13.57;;
14748;SDS011;7466;53.574;9.976;2024-02-14T13:27:46;14.00;;;12.50;;
14748;SDS011;7466;53.574;9.976;2024-02-14T13:30:12;17.93;;;13.30;;
14748;SDS011;7466;53.574;9.976;2024-02-14T13:32:39;15.37;;;12.00;;
14748;SDS011;7466;53.574;9.976;2024-02-14T13:35:07;13.70;;;12.30;;
14748;SDS011;7466;53.574;9.976;2024-02-14T13:37:35;14.80;;;12.07;;
14748;SDS011;7466;53.574;9.976;2024-02-14T13:40:02;14.43;;;13.00;;
14748;SDS011;7466;53.574;9.976;2024-02-14T13:42:34;16.73;;;12.93;;
14748;SDS011;7466;53.574;9.976;2024-02-14T13:45:02;15.03;;;12.27;;
14748;SDS011;7466;53.574;9.976;2024-02-14T13:47:30;15.17;;;12.50;;
14748;SDS011;7466;53.574;9.976;2024-02-14T13:49:56;13.83;;;12.13;;
14748;SDS011;7466;53.574;9.976;2024-02-14T13:52:23;14.10;;;12.20;;
14748;SDS011;7466;53.574;9.976;2024-02-14T13:54:50;16.60;;;12.23;;
14748;SDS011;7466;53.574;9.976;2024-02-14T13:57:17;13.33;;;12.03;;
14748;SDS011;7466;53.574;9.976;2024-02-14T13:59:43;13.27;;;12.07;;
14748;SDS011;7466;53.574;9.976;2024-02-14T14:02:12;13.53;;;11.60;;
14748;SDS011;7466;53.574;9.976;2024-02-14T14:04:39;13.63;;;12.10;;
14748;SDS011;7466;53.574;9.976;2024-02-14T14:07:06;13.10;;;11.90;;
14748;SDS011;7466;53.574;9.976;2024-02-14T14:09:33;14.60;;;13.13;;
14748;SDS011;7466;53.574;9.976;2024-02-14T14:12:00;14.37;;;12.87;;
14748;SDS011;7466;53.574;9.976;2024-02-14T14:14:27;14.50;;;13.03;;
14748;SDS011;7466;53.574;9.976;2024-02-14T14:16:55;14.23;;;12.90;;
14748;SDS011;7466;53.574;9.976;2024-02-14T14:19:25;13.13;;;11.93;;
14748;SDS011;7466;53.574;9.976;2024-02-14T14:21:52;14.17;;;12.80;;
14748;SDS011;7466;53.574;9.976;2024-02-14T14:24:19;12.77;;;11.53;;
14748;SDS011;7466;53.574;9.976;2024-02-14T14:26:46;13.10;;;11.63;;
14748;SDS011;7466;53.574;9.976;2024-02-14T14:29:16;12.23;;;10.97;;
14748;SDS011;7466;53.574;9.976;2024-02-14T14:31:43;12.73;;;11.43;;
14748;SDS011;7466;53.574;9.976;2024-02-14T14:34:10;12.67;;;11.50;;
14748;SDS011;7466;53.574;9.976;2024-02-14T14:36:38;12.37;;;11.23;;
14748;SDS011;7466;53.574;9.976;2024-02-14T14:39:06;12.67;;;11.37;;
14748;SDS011;7466;53.574;9.976;2024-02-14T14:41:36;13.97;;;12.57;;
14748;SDS011;7466;53.574;9.976;2024-02-14T14:44:03;12.80;;;11.70;;
14748;SDS011;7466;53.574;9.976;2024-02-14T14:46:30;13.80;;;12.50;;
14748;SDS011;7466;53.574;9.976;2024-02-14T14:48:58;14.40;;;12.93;;
14748;SDS011;7466;53.574;9.976;2024-02-14T14:51:24;14.03;;;12.73;;
14748;SDS011;7466;53.574;9.976;2024-02-14T14:53:54;15.27;;;13.70;;
14748;SDS011;7466;53.574;9.976;2024-02-14T14:56:21;15.00;;;13.50;;
14748;SDS011;7466;53.574;9.976;2024-02-14T14:58:50;16.37;;;14.67;;
14748;SDS011;7466;53.574;9.976;2024-02-14T15:01:17;14.90;;;13.47;;
14748;SDS011;7466;53.574;9.976;2024-02-14T15:03:45;15.40;;;13.90;;
14748;SDS011;7466;53.574;9.976;2024-02-14T15:06:12;15.20;;;13.60;;
14748;SDS011;7466;53.574;9.976;2024-02-14T15:08:40;14.70;;;13.33;;